createdAt,value
2017-09-09T00:00:10.286Z,978.61
2017-09-09T00:01:09.896Z,978.57
2017-09-09T00:02:09.896Z,978.58
2017-09-09T00:03:09.895Z,978.58
2017-09-09T00:04:09.893Z,978.57
2017-09-09T00:05:10.381Z,978.55
2017-09-09T00:06:09.894Z,978.56
2017-09-09T00:07:09.893Z,978.55
2017-09-09T00:08:09.892Z,978.52
2017-09-09T00:09:09.892Z,978.54
2017-09-09T00:10:10.223Z,978.54
2017-09-09T00:11:09.893Z,978.51
2017-09-09T00:12:09.893Z,978.57
2017-09-09T00:13:09.894Z,978.5
2017-09-09T00:14:09.892Z,978.47
2017-09-09T00:15:10.226Z,978.49
2017-09-09T00:16:09.895Z,978.4
2017-09-09T00:17:09.894Z,978.38
2017-09-09T00:18:09.888Z,978.35
2017-09-09T00:19:09.890Z,978.37
2017-09-09T00:20:10.197Z,978.35
2017-09-09T00:21:09.885Z,978.38
2017-09-09T00:22:09.884Z,978.31
2017-09-09T00:23:09.884Z,978.33
2017-09-09T00:24:09.885Z,978.33
2017-09-09T00:25:10.109Z,978.29
2017-09-09T00:26:09.882Z,978.24
2017-09-09T00:27:09.881Z,978.2
2017-09-09T00:28:09.886Z,978.23
2017-09-09T00:29:09.880Z,978.18
2017-09-09T00:30:10.263Z,978.2
2017-09-09T00:31:09.879Z,978.1
2017-09-09T00:32:09.880Z,978.15
2017-09-09T00:33:09.879Z,978.14
2017-09-09T00:34:09.878Z,978.13
2017-09-09T00:35:10.226Z,978.11
2017-09-09T00:36:09.877Z,978.03
2017-09-09T00:37:09.876Z,978.02
2017-09-09T00:38:09.876Z,978.03
2017-09-09T00:39:09.876Z,977.99
2017-09-09T00:40:10.238Z,977.97
2017-09-09T00:41:09.872Z,977.96
2017-09-09T00:42:09.872Z,977.97
2017-09-09T00:43:09.870Z,977.95
2017-09-09T00:44:09.870Z,977.98
2017-09-09T00:45:10.345Z,977.98
2017-09-09T00:46:09.869Z,977.97
2017-09-09T00:47:09.866Z,977.92
2017-09-09T00:48:09.865Z,977.97
2017-09-09T00:49:09.864Z,977.88
2017-09-09T00:50:10.110Z,977.93
2017-09-09T00:51:09.864Z,977.98
2017-09-09T00:52:09.861Z,977.88
2017-09-09T00:53:09.860Z,977.91
2017-09-09T00:54:09.860Z,977.91
2017-09-09T00:55:10.276Z,977.86
2017-09-09T00:56:09.857Z,977.82
2017-09-09T00:57:09.855Z,977.76
2017-09-09T00:58:09.861Z,977.76
2017-09-09T00:59:09.855Z,977.69
2017-09-09T01:00:10.174Z,977.68
2017-09-09T01:01:09.859Z,977.71
2017-09-09T01:02:09.856Z,977.67
2017-09-09T01:03:09.854Z,977.66
2017-09-09T01:04:09.848Z,977.65
2017-09-09T01:05:10.429Z,977.65
2017-09-09T01:06:09.846Z,977.57
2017-09-09T01:07:09.844Z,977.54
2017-09-09T01:08:09.844Z,977.48
2017-09-09T01:09:09.841Z,977.49
2017-09-09T01:10:10.365Z,977.44
2017-09-09T01:11:09.838Z,977.49
2017-09-09T01:12:09.838Z,977.44
2017-09-09T01:13:09.835Z,977.44
2017-09-09T01:14:09.838Z,977.44
2017-09-09T01:15:10.115Z,977.4
2017-09-09T01:16:09.834Z,977.45
2017-09-09T01:17:09.839Z,977.46
2017-09-09T01:18:09.847Z,977.42
2017-09-09T01:19:09.840Z,977.42
2017-09-09T01:20:10.248Z,977.4
2017-09-09T01:21:09.822Z,977.38
2017-09-09T01:22:09.819Z,977.41
2017-09-09T01:23:09.818Z,977.35
2017-09-09T01:24:09.818Z,977.38
2017-09-09T01:25:10.257Z,977.38
2017-09-09T01:26:09.813Z,977.36
2017-09-09T01:27:09.810Z,977.35
2017-09-09T01:28:09.812Z,977.37
2017-09-09T01:29:09.807Z,977.33
2017-09-09T01:30:10.196Z,977.26
2017-09-09T01:31:09.804Z,977.29
2017-09-09T01:32:09.801Z,977.25
2017-09-09T01:33:09.800Z,977.25
2017-09-09T01:34:09.806Z,977.23
2017-09-09T01:35:10.273Z,977.2
2017-09-09T01:36:09.794Z,977.24
2017-09-09T01:37:09.793Z,977.18
2017-09-09T01:38:09.791Z,977.19
2017-09-09T01:39:09.790Z,977.21
2017-09-09T01:40:10.230Z,977.16
2017-09-09T01:41:09.791Z,977.08
2017-09-09T01:42:09.788Z,977.06
2017-09-09T01:43:09.786Z,977.02
2017-09-09T01:44:09.792Z,976.99
2017-09-09T01:45:10.073Z,976.96
2017-09-09T01:46:09.777Z,976.99
2017-09-09T01:47:09.775Z,976.99
2017-09-09T01:48:09.776Z,976.96
2017-09-09T01:49:09.777Z,976.9
2017-09-09T01:50:09.771Z,976.94
2017-09-09T01:51:09.786Z,977
2017-09-09T01:52:09.766Z,976.98
2017-09-09T01:53:09.816Z,976.97
2017-09-09T01:54:09.769Z,976.95
2017-09-09T01:55:10.197Z,976.99
2017-09-09T01:56:09.766Z,976.94
2017-09-09T01:57:09.761Z,976.94
2017-09-09T01:58:09.756Z,976.87
2017-09-09T01:59:09.754Z,976.89
2017-09-09T02:00:10.213Z,976.81
2017-09-09T02:01:09.748Z,976.76
2017-09-09T02:02:09.748Z,976.8
2017-09-09T02:03:09.747Z,976.8
2017-09-09T02:04:09.745Z,976.77
2017-09-09T02:05:10.044Z,976.74
2017-09-09T02:06:09.741Z,976.71
2017-09-09T02:07:09.740Z,976.74
2017-09-09T02:08:09.737Z,976.68
2017-09-09T02:09:09.737Z,976.7
2017-09-09T02:10:10.118Z,976.71
2017-09-09T02:11:09.735Z,976.7
2017-09-09T02:12:09.735Z,976.72
2017-09-09T02:13:09.736Z,976.75
2017-09-09T02:14:09.736Z,976.79
2017-09-09T02:15:10.194Z,976.71
2017-09-09T02:16:09.727Z,976.75
2017-09-09T02:17:09.724Z,976.67
2017-09-09T02:18:09.728Z,976.66
2017-09-09T02:19:09.720Z,976.63
2017-09-09T02:20:10.135Z,976.58
2017-09-09T02:21:09.728Z,976.64
2017-09-09T02:22:09.725Z,976.61
2017-09-09T02:23:09.734Z,976.67
2017-09-09T02:24:09.720Z,976.64
2017-09-09T02:25:09.991Z,976.63
2017-09-09T02:26:09.711Z,976.6
2017-09-09T02:27:09.709Z,976.57
2017-09-09T02:28:09.706Z,976.58
2017-09-09T02:29:09.707Z,976.58
2017-09-09T02:30:10.008Z,976.48
2017-09-09T02:31:09.706Z,976.46
2017-09-09T02:32:09.703Z,976.52
2017-09-09T02:33:09.704Z,976.54
2017-09-09T02:34:09.703Z,976.48
2017-09-09T02:35:09.993Z,976.49
2017-09-09T02:36:09.699Z,976.44
2017-09-09T02:37:09.698Z,976.44
2017-09-09T02:38:09.701Z,976.44
2017-09-09T02:39:09.696Z,976.43
2017-09-09T02:40:10.005Z,976.45
2017-09-09T02:41:09.692Z,976.41
2017-09-09T02:42:09.692Z,976.37
2017-09-09T02:43:09.725Z,976.37
2017-09-09T02:44:09.691Z,976.38
2017-09-09T02:45:10.085Z,976.41
2017-09-09T02:46:09.694Z,976.4
2017-09-09T02:47:09.687Z,976.39
2017-09-09T02:48:09.693Z,976.37
2017-09-09T02:49:09.691Z,976.42
2017-09-09T02:50:10.162Z,976.39
2017-09-09T02:51:09.695Z,976.29
2017-09-09T02:52:09.690Z,976.26
2017-09-09T02:53:09.684Z,976.29
2017-09-09T02:54:09.681Z,976.32
2017-09-09T02:55:10.120Z,976.33
2017-09-09T02:56:09.692Z,976.26
2017-09-09T02:57:09.680Z,976.29
2017-09-09T02:58:09.672Z,976.26
2017-09-09T02:59:09.672Z,976.28
2017-09-09T03:00:09.898Z,976.29
2017-09-09T03:01:09.669Z,976.27
2017-09-09T03:02:09.675Z,976.27
2017-09-09T03:03:09.666Z,976.26
2017-09-09T03:04:09.665Z,976.3
2017-09-09T03:05:10.123Z,976.3
2017-09-09T03:06:09.665Z,976.29
2017-09-09T03:07:09.663Z,976.33
2017-09-09T03:08:09.660Z,976.31
2017-09-09T03:09:09.663Z,976.31
2017-09-09T03:10:10.079Z,976.3
2017-09-09T03:11:09.656Z,976.34
2017-09-09T03:12:09.656Z,976.34
2017-09-09T03:13:09.654Z,976.31
2017-09-09T03:14:09.651Z,976.28
2017-09-09T03:15:09.897Z,976.24
2017-09-09T03:16:09.650Z,976.18
2017-09-09T03:17:09.649Z,976.23
2017-09-09T03:18:09.645Z,976.22
2017-09-09T03:19:09.644Z,976.19
2017-09-09T03:20:09.993Z,976.2
2017-09-09T03:21:09.645Z,976.19
2017-09-09T03:22:09.645Z,976.16
2017-09-09T03:23:09.643Z,976.16
2017-09-09T03:24:09.642Z,976.08
2017-09-09T03:25:10.001Z,976.07
2017-09-09T03:26:09.644Z,976.06
2017-09-09T03:27:09.647Z,976.11
2017-09-09T03:28:09.633Z,976.08
2017-09-09T03:29:09.630Z,976.09
2017-09-09T03:30:09.972Z,976.12
2017-09-09T03:31:09.628Z,976.11
2017-09-09T03:32:09.625Z,976.08
2017-09-09T03:33:09.624Z,976.06
2017-09-09T03:34:09.624Z,976.06
2017-09-09T03:35:09.985Z,976.04
2017-09-09T03:36:09.621Z,976.02
2017-09-09T03:37:09.620Z,975.96
2017-09-09T03:38:09.619Z,975.95
2017-09-09T03:39:09.616Z,975.9
2017-09-09T03:40:09.848Z,975.89
2017-09-09T03:41:09.615Z,975.88
2017-09-09T03:42:09.615Z,975.92
2017-09-09T03:43:09.612Z,975.84
2017-09-09T03:44:09.613Z,975.85
2017-09-09T03:45:09.989Z,975.87
2017-09-09T03:46:09.609Z,975.82
2017-09-09T03:47:09.608Z,975.81
2017-09-09T03:48:09.607Z,975.83
2017-09-09T03:49:09.605Z,975.77
2017-09-09T03:50:09.975Z,975.76
2017-09-09T03:51:09.601Z,975.85
2017-09-09T03:52:09.602Z,975.78
2017-09-09T03:53:09.600Z,975.71
2017-09-09T03:54:09.601Z,975.8
2017-09-09T03:55:10.053Z,975.77
2017-09-09T03:56:09.596Z,975.73
2017-09-09T03:57:09.596Z,975.66
2017-09-09T03:58:09.594Z,975.74
2017-09-09T03:59:09.592Z,975.69
2017-09-09T04:00:09.982Z,975.75
2017-09-09T04:01:09.591Z,975.78
2017-09-09T04:02:09.589Z,975.79
2017-09-09T04:03:09.590Z,975.78
2017-09-09T04:04:09.589Z,975.7
2017-09-09T04:05:09.980Z,975.71
2017-09-09T04:06:09.584Z,975.7
2017-09-09T04:07:09.588Z,975.61
2017-09-09T04:08:09.583Z,975.61
2017-09-09T04:09:09.579Z,975.64
2017-09-09T04:10:10.002Z,975.58
2017-09-09T04:11:09.578Z,975.57
2017-09-09T04:12:09.579Z,975.57
2017-09-09T04:13:09.575Z,975.65
2017-09-09T04:14:09.581Z,975.64
2017-09-09T04:15:09.922Z,975.59
2017-09-09T04:16:09.570Z,975.55
2017-09-09T04:17:09.570Z,975.58
2017-09-09T04:18:09.570Z,975.54
2017-09-09T04:19:09.575Z,975.52
2017-09-09T04:20:10.015Z,975.52
2017-09-09T04:21:09.566Z,975.52
2017-09-09T04:22:09.565Z,975.53
2017-09-09T04:23:09.564Z,975.53
2017-09-09T04:24:09.562Z,975.44
2017-09-09T04:25:09.840Z,975.45
2017-09-09T04:26:09.560Z,975.41
2017-09-09T04:27:09.558Z,975.43
2017-09-09T04:28:09.558Z,975.38
2017-09-09T04:29:09.557Z,975.35
2017-09-09T04:30:09.816Z,975.33
2017-09-09T04:31:09.554Z,975.33
2017-09-09T04:32:09.553Z,975.29
2017-09-09T04:33:09.555Z,975.28
2017-09-09T04:34:09.552Z,975.3
2017-09-09T04:35:09.861Z,975.34
2017-09-09T04:36:09.551Z,975.39
2017-09-09T04:37:09.547Z,975.38
2017-09-09T04:38:09.548Z,975.32
2017-09-09T04:39:09.546Z,975.23
2017-09-09T04:40:09.905Z,975.22
2017-09-09T04:41:09.543Z,975.31
2017-09-09T04:42:09.541Z,975.3
2017-09-09T04:43:09.540Z,975.29
2017-09-09T04:44:09.539Z,975.29
2017-09-09T04:45:09.949Z,975.23
2017-09-09T04:46:09.536Z,975.26
2017-09-09T04:47:09.535Z,975.27
2017-09-09T04:48:09.534Z,975.32
2017-09-09T04:49:09.535Z,975.29
2017-09-09T04:50:09.922Z,975.27
2017-09-09T04:51:09.529Z,975.2
2017-09-09T04:52:09.528Z,975.15
2017-09-09T04:53:09.526Z,975.17
2017-09-09T04:54:09.525Z,975.17
2017-09-09T04:55:09.934Z,975.22
2017-09-09T04:56:09.522Z,975.2
2017-09-09T04:57:09.520Z,975.22
2017-09-09T04:58:09.519Z,975.19
2017-09-09T04:59:09.518Z,975.23
2017-09-09T05:00:09.901Z,975.21
2017-09-09T05:01:09.514Z,975.21
2017-09-09T05:02:09.520Z,975.24
2017-09-09T05:03:09.512Z,975.22
2017-09-09T05:04:09.511Z,975.26
2017-09-09T05:05:09.949Z,975.27
2017-09-09T05:06:09.510Z,975.22
2017-09-09T05:07:09.521Z,975.19
2017-09-09T05:08:09.507Z,975.23
2017-09-09T05:09:09.507Z,975.25
2017-09-09T05:10:09.935Z,975.25
2017-09-09T05:11:09.516Z,975.23
2017-09-09T05:12:09.503Z,975.18
2017-09-09T05:13:09.502Z,975.2
2017-09-09T05:14:09.501Z,975.23
2017-09-09T05:15:09.862Z,975.27
2017-09-09T05:16:09.532Z,975.24
2017-09-09T05:17:09.500Z,975.16
2017-09-09T05:18:09.499Z,975.21
2017-09-09T05:19:09.497Z,975.24
2017-09-09T05:20:09.839Z,975.28
2017-09-09T05:21:09.495Z,975.26
2017-09-09T05:22:09.493Z,975.25
2017-09-09T05:23:09.494Z,975.31
2017-09-09T05:24:09.493Z,975.26
2017-09-09T05:25:09.845Z,975.26
2017-09-09T05:26:09.490Z,975.27
2017-09-09T05:27:09.490Z,975.24
2017-09-09T05:28:09.494Z,975.22
2017-09-09T05:29:09.486Z,975.24
2017-09-09T05:30:09.859Z,975.23
2017-09-09T05:31:09.486Z,975.21
2017-09-09T05:32:09.486Z,975.18
2017-09-09T05:33:09.484Z,975.15
2017-09-09T05:34:09.483Z,975.2
2017-09-09T05:35:09.720Z,975.21
2017-09-09T05:36:09.483Z,975.22
2017-09-09T05:37:09.479Z,975.26
2017-09-09T05:38:09.482Z,975.22
2017-09-09T05:39:09.478Z,975.21
2017-09-09T05:40:09.796Z,975.29
2017-09-09T05:41:09.476Z,975.27
2017-09-09T05:42:09.477Z,975.28
2017-09-09T05:43:09.476Z,975.31
2017-09-09T05:44:09.481Z,975.37
2017-09-09T05:45:09.821Z,975.36
2017-09-09T05:46:09.474Z,975.38
2017-09-09T05:47:09.482Z,975.35
2017-09-09T05:48:09.482Z,975.41
2017-09-09T05:49:09.471Z,975.38
2017-09-09T05:50:09.937Z,975.29
2017-09-09T05:51:09.472Z,975.35
2017-09-09T05:52:09.468Z,975.4
2017-09-09T05:53:09.469Z,975.38
2017-09-09T05:54:09.467Z,975.42
2017-09-09T05:55:09.978Z,975.42
2017-09-09T05:56:09.467Z,975.43
2017-09-09T05:57:09.468Z,975.45
2017-09-09T05:58:09.464Z,975.43
2017-09-09T05:59:09.463Z,975.44
2017-09-09T06:00:10.281Z,975.4
2017-09-09T06:01:09.462Z,975.4
2017-09-09T06:02:09.461Z,975.4
2017-09-09T06:03:09.460Z,975.42
2017-09-09T06:04:09.460Z,975.43
2017-09-09T06:05:10.084Z,975.43
2017-09-09T06:06:09.459Z,975.33
2017-09-09T06:07:09.458Z,975.34
2017-09-09T06:08:09.456Z,975.37
2017-09-09T06:09:09.456Z,975.37
2017-09-09T06:10:12.310Z,975.38
2017-09-09T06:11:09.462Z,975.34
2017-09-09T06:12:09.456Z,975.34
2017-09-09T06:13:09.458Z,975.32
2017-09-09T06:14:09.456Z,975.34
2017-09-09T06:15:09.860Z,975.37
2017-09-09T06:16:09.457Z,975.37
2017-09-09T06:17:09.461Z,975.39
2017-09-09T06:18:09.451Z,975.34
2017-09-09T06:19:09.451Z,975.31
2017-09-09T06:20:09.793Z,975.33
2017-09-09T06:21:09.450Z,975.3
2017-09-09T06:22:09.450Z,975.31
2017-09-09T06:23:09.448Z,975.35
2017-09-09T06:24:09.449Z,975.39
2017-09-09T06:25:09.753Z,975.39
2017-09-09T06:26:09.451Z,975.41
2017-09-09T06:27:09.451Z,975.37
2017-09-09T06:28:09.447Z,975.36
2017-09-09T06:29:09.443Z,975.36
2017-09-09T06:30:09.733Z,975.35
2017-09-09T06:31:09.443Z,975.3
2017-09-09T06:32:09.440Z,975.33
2017-09-09T06:33:09.443Z,975.3
2017-09-09T06:34:09.442Z,975.3
2017-09-09T06:35:09.791Z,975.29
2017-09-09T06:36:09.440Z,975.3
2017-09-09T06:37:09.444Z,975.3
2017-09-09T06:38:09.442Z,975.3
2017-09-09T06:39:09.445Z,975.36
2017-09-09T06:40:09.873Z,975.33
2017-09-09T06:41:09.436Z,975.33
2017-09-09T06:42:09.435Z,975.36
2017-09-09T06:43:09.432Z,975.36
2017-09-09T06:44:09.433Z,975.34
2017-09-09T06:45:09.725Z,975.37
2017-09-09T06:46:09.434Z,975.34
2017-09-09T06:47:09.429Z,975.33
2017-09-09T06:48:09.430Z,975.34
2017-09-09T06:49:09.431Z,975.36
2017-09-09T06:50:09.762Z,975.42
2017-09-09T06:51:09.429Z,975.43
2017-09-09T06:52:09.428Z,975.37
2017-09-09T06:53:09.427Z,975.39
2017-09-09T06:54:09.428Z,975.38
2017-09-09T06:55:09.781Z,975.41
2017-09-09T06:56:09.426Z,975.42
2017-09-09T06:57:09.426Z,975.5
2017-09-09T06:58:09.425Z,975.54
2017-09-09T06:59:09.426Z,975.62
2017-09-09T07:00:09.643Z,975.67
2017-09-09T07:01:09.424Z,975.66
2017-09-09T07:02:09.425Z,975.66
2017-09-09T07:03:09.431Z,975.66
2017-09-09T07:04:09.433Z,975.65
2017-09-09T07:05:09.627Z,975.77
2017-09-09T07:06:09.434Z,975.77
2017-09-09T07:07:09.435Z,975.79
2017-09-09T07:08:09.425Z,975.82
2017-09-09T07:09:09.423Z,975.82
2017-09-09T07:10:09.706Z,975.83
2017-09-09T07:11:09.422Z,975.82
2017-09-09T07:12:09.424Z,975.88
2017-09-09T07:13:09.425Z,975.85
2017-09-09T07:14:09.426Z,975.87
2017-09-09T07:15:09.656Z,975.82
2017-09-09T07:16:09.424Z,975.88
2017-09-09T07:17:09.420Z,975.91
2017-09-09T07:18:09.425Z,975.93
2017-09-09T07:19:09.424Z,975.95
2017-09-09T07:20:09.838Z,975.96
2017-09-09T07:21:09.417Z,975.96
2017-09-09T07:22:09.418Z,975.91
2017-09-09T07:23:09.416Z,975.92
2017-09-09T07:24:09.417Z,975.86
2017-09-09T07:25:09.766Z,975.76
2017-09-09T07:26:09.416Z,975.73
2017-09-09T07:27:09.418Z,975.68
2017-09-09T07:28:09.416Z,975.72
2017-09-09T07:29:09.414Z,975.87
2017-09-09T07:30:09.858Z,975.89
2017-09-09T07:31:09.414Z,975.95
2017-09-09T07:32:09.414Z,975.96
2017-09-09T07:33:09.413Z,975.97
2017-09-09T07:34:09.412Z,975.98
2017-09-09T07:35:09.750Z,976
2017-09-09T07:36:09.412Z,976.01
2017-09-09T07:37:09.410Z,976
2017-09-09T07:38:09.409Z,976.04
2017-09-09T07:39:09.410Z,976.12
2017-09-09T07:40:09.778Z,976.11
2017-09-09T07:41:09.412Z,976.17
2017-09-09T07:42:09.407Z,976.17
2017-09-09T07:43:09.406Z,976.16
2017-09-09T07:44:09.406Z,976.15
2017-09-09T07:45:09.778Z,976.22
2017-09-09T07:46:09.406Z,976.2
2017-09-09T07:47:09.406Z,976.18
2017-09-09T07:48:09.407Z,976.14
2017-09-09T07:49:09.404Z,976.14
2017-09-09T07:50:09.724Z,976.15
2017-09-09T07:51:09.403Z,976.18
2017-09-09T07:52:09.402Z,976.16
2017-09-09T07:53:09.401Z,976.19
2017-09-09T07:54:09.401Z,976.16
2017-09-09T07:55:09.836Z,976.16
2017-09-09T07:56:09.400Z,976.14
2017-09-09T07:57:09.401Z,976.12
2017-09-09T07:58:09.399Z,976.12
2017-09-09T07:59:09.400Z,976.09
2017-09-09T08:00:09.710Z,976.11
2017-09-09T08:01:09.466Z,976.12
2017-09-09T08:02:09.428Z,976.13
2017-09-09T08:03:09.417Z,976.18
2017-09-09T08:04:09.397Z,976.17
2017-09-09T08:05:09.774Z,976.21
2017-09-09T08:06:09.398Z,976.21
2017-09-09T08:07:09.397Z,976.31
2017-09-09T08:08:09.419Z,976.37
2017-09-09T08:09:09.399Z,976.34
2017-09-09T08:10:09.700Z,976.34
2017-09-09T08:11:09.396Z,976.33
2017-09-09T08:12:09.396Z,976.3
2017-09-09T08:13:09.396Z,976.27
2017-09-09T08:14:09.394Z,976.26
2017-09-09T08:15:09.889Z,976.24
2017-09-09T08:16:09.394Z,976.27
2017-09-09T08:17:09.395Z,976.28
2017-09-09T08:18:09.394Z,976.27
2017-09-09T08:19:09.394Z,976.22
2017-09-09T08:20:09.792Z,976.2
2017-09-09T08:21:09.394Z,976.27
2017-09-09T08:22:09.394Z,976.38
2017-09-09T08:23:09.395Z,976.43
2017-09-09T08:24:09.395Z,976.46
2017-09-09T08:25:09.740Z,976.49
2017-09-09T08:26:09.398Z,976.56
2017-09-09T08:27:09.394Z,976.54
2017-09-09T08:28:09.393Z,976.58
2017-09-09T08:29:09.395Z,976.55
2017-09-09T08:30:09.884Z,976.49
2017-09-09T08:31:09.401Z,976.52
2017-09-09T08:32:09.397Z,976.56
2017-09-09T08:33:09.394Z,976.57
2017-09-09T08:34:09.395Z,976.64
2017-09-09T08:35:09.760Z,976.67
2017-09-09T08:36:09.394Z,976.74
2017-09-09T08:37:09.394Z,976.73
2017-09-09T08:38:09.394Z,976.74
2017-09-09T08:39:09.394Z,976.69
2017-09-09T08:40:09.650Z,976.67
2017-09-09T08:41:09.393Z,976.66
2017-09-09T08:42:09.393Z,976.67
2017-09-09T08:43:09.398Z,976.7
2017-09-09T08:44:09.393Z,976.71
2017-09-09T08:45:09.805Z,976.72
2017-09-09T08:46:09.393Z,976.69
2017-09-09T08:47:09.392Z,976.67
2017-09-09T08:48:09.395Z,976.65
2017-09-09T08:49:09.402Z,976.61
2017-09-09T08:50:09.705Z,976.58
2017-09-09T08:51:09.391Z,976.62
2017-09-09T08:52:09.392Z,976.55
2017-09-09T08:53:09.391Z,976.58
2017-09-09T08:54:09.390Z,976.54
2017-09-09T08:55:09.744Z,976.61
2017-09-09T08:56:09.391Z,976.62
2017-09-09T08:57:09.390Z,976.65
2017-09-09T08:58:09.389Z,976.66
2017-09-09T08:59:09.389Z,976.67
2017-09-09T09:00:09.867Z,976.64
2017-09-09T09:01:09.388Z,976.67
2017-09-09T09:02:09.387Z,976.67
2017-09-09T09:03:09.388Z,976.73
2017-09-09T09:04:09.388Z,976.76
2017-09-09T09:05:09.733Z,976.76
2017-09-09T09:06:09.387Z,976.76
2017-09-09T09:07:09.385Z,976.81
2017-09-09T09:08:09.390Z,976.85
2017-09-09T09:09:09.386Z,976.87
2017-09-09T09:10:09.851Z,976.9
2017-09-09T09:11:09.384Z,976.86
2017-09-09T09:12:09.383Z,976.85
2017-09-09T09:13:09.388Z,976.89
2017-09-09T09:14:09.384Z,976.92
2017-09-09T09:15:09.742Z,976.97
2017-09-09T09:16:09.386Z,977.02
2017-09-09T09:17:09.384Z,977.03
2017-09-09T09:18:09.384Z,976.99
2017-09-09T09:19:09.383Z,976.94
2017-09-09T09:20:09.770Z,976.95
2017-09-09T09:21:09.383Z,977.02
2017-09-09T09:22:09.387Z,976.98
2017-09-09T09:23:09.384Z,977.02
2017-09-09T09:24:09.383Z,976.98
2017-09-09T09:25:09.754Z,976.96
2017-09-09T09:26:09.385Z,977.03
2017-09-09T09:27:09.404Z,977.09
2017-09-09T09:28:09.385Z,977.15
2017-09-09T09:29:09.386Z,977.14
2017-09-09T09:30:09.701Z,977.16
2017-09-09T09:31:09.384Z,977.13
2017-09-09T09:32:09.385Z,977.13
2017-09-09T09:33:09.384Z,977.02
2017-09-09T09:34:09.384Z,977
2017-09-09T09:35:09.724Z,976.95
2017-09-09T09:36:09.383Z,976.89
2017-09-09T09:37:09.386Z,976.83
2017-09-09T09:38:09.384Z,976.86
2017-09-09T09:39:09.385Z,976.88
2017-09-09T09:40:09.729Z,976.9
2017-09-09T09:41:09.385Z,976.89
2017-09-09T09:42:09.385Z,976.84
2017-09-09T09:43:09.386Z,976.84
2017-09-09T09:44:09.386Z,976.86
2017-09-09T09:45:09.710Z,976.85
2017-09-09T09:46:09.387Z,976.83
2017-09-09T09:47:09.387Z,976.8
2017-09-09T09:48:09.386Z,976.85
2017-09-09T09:49:09.388Z,976.84
2017-09-09T09:50:09.719Z,977
2017-09-09T09:51:09.387Z,977.07
2017-09-09T09:52:09.394Z,977.15
2017-09-09T09:53:09.389Z,977.19
2017-09-09T09:54:09.388Z,977.2
2017-09-09T09:55:09.709Z,977.2
2017-09-09T09:56:09.389Z,977.2
2017-09-09T09:57:09.390Z,977.24
2017-09-09T09:58:09.391Z,977.28
2017-09-09T09:59:09.391Z,977.26
2017-09-09T10:00:09.772Z,977.25
2017-09-09T10:01:09.393Z,977.27
2017-09-09T10:02:09.403Z,977.23
2017-09-09T10:03:09.395Z,977.2
2017-09-09T10:04:09.395Z,977.16
2017-09-09T10:05:09.871Z,977.19
2017-09-09T10:06:09.404Z,977.2
2017-09-09T10:07:09.401Z,977.16
2017-09-09T10:08:09.404Z,977.19
2017-09-09T10:09:09.402Z,977.17
2017-09-09T10:10:09.691Z,977.18
2017-09-09T10:11:09.402Z,977.25
2017-09-09T10:12:09.406Z,977.14
2017-09-09T10:13:09.406Z,977.17
2017-09-09T10:14:09.408Z,977.17
2017-09-09T10:15:09.755Z,977.14
2017-09-09T10:16:09.410Z,977.09
2017-09-09T10:17:09.412Z,977.03
2017-09-09T10:18:09.413Z,977.04
2017-09-09T10:19:09.414Z,977
2017-09-09T10:20:09.415Z,976.98
2017-09-09T10:21:09.416Z,976.92
2017-09-09T10:22:09.417Z,976.81
2017-09-09T10:23:09.420Z,976.76
2017-09-09T10:24:09.419Z,976.67
2017-09-09T10:25:09.843Z,976.66
2017-09-09T10:26:09.433Z,976.71
2017-09-09T10:27:09.423Z,976.81
2017-09-09T10:28:09.425Z,976.87
2017-09-09T10:29:09.424Z,976.95
2017-09-09T10:30:09.858Z,976.95
2017-09-09T10:31:09.426Z,976.93
2017-09-09T10:32:09.431Z,976.92
2017-09-09T10:33:09.429Z,976.91
2017-09-09T10:34:09.429Z,976.89
2017-09-09T10:35:09.759Z,976.9
2017-09-09T10:36:09.430Z,976.97
2017-09-09T10:37:09.431Z,976.94
2017-09-09T10:38:09.432Z,976.99
2017-09-09T10:39:09.434Z,977.01
2017-09-09T10:40:09.780Z,976.96
2017-09-09T10:41:09.435Z,977.01
2017-09-09T10:42:09.438Z,977.03
2017-09-09T10:43:09.437Z,977.1
2017-09-09T10:44:09.437Z,977.09
2017-09-09T10:45:09.786Z,977.11
2017-09-09T10:46:09.440Z,977.04
2017-09-09T10:47:09.440Z,977.02
2017-09-09T10:48:09.472Z,977.01
2017-09-09T10:49:09.442Z,977
2017-09-09T10:50:09.823Z,977.05
2017-09-09T10:51:09.443Z,977.04
2017-09-09T10:52:09.447Z,977.06
2017-09-09T10:53:09.444Z,977.03
2017-09-09T10:54:09.453Z,977.06
2017-09-09T10:55:09.856Z,977.07
2017-09-09T10:56:09.448Z,977
2017-09-09T10:57:09.453Z,976.97
2017-09-09T10:58:09.449Z,977
2017-09-09T10:59:09.451Z,977.01
2017-09-09T11:00:09.836Z,976.98
2017-09-09T11:01:09.455Z,977.06
2017-09-09T11:02:09.456Z,977.03
2017-09-09T11:03:09.456Z,977.02
2017-09-09T11:04:09.458Z,976.97
2017-09-09T11:05:09.742Z,976.94
2017-09-09T11:06:09.469Z,976.86
2017-09-09T11:07:09.465Z,976.79
2017-09-09T11:08:09.465Z,976.77
2017-09-09T11:09:09.465Z,976.67
2017-09-09T11:10:09.888Z,976.67
2017-09-09T11:11:09.470Z,976.74
2017-09-09T11:12:09.476Z,976.74
2017-09-09T11:13:09.475Z,976.73
2017-09-09T11:14:09.475Z,976.67
2017-09-09T11:15:09.782Z,976.64
2017-09-09T11:16:09.480Z,976.64
2017-09-09T11:17:09.484Z,976.62
2017-09-09T11:18:09.484Z,976.62
2017-09-09T11:19:09.486Z,976.63
2017-09-09T11:20:09.937Z,976.61
2017-09-09T11:21:09.489Z,976.59
2017-09-09T11:22:09.494Z,976.54
2017-09-09T11:23:09.495Z,976.59
2017-09-09T11:24:09.519Z,976.55
2017-09-09T11:25:10.022Z,976.54
2017-09-09T11:26:09.501Z,976.55
2017-09-09T11:27:09.506Z,976.56
2017-09-09T11:28:09.506Z,976.54
2017-09-09T11:29:09.510Z,976.55
2017-09-09T11:30:09.941Z,976.57
2017-09-09T11:31:09.513Z,976.54
2017-09-09T11:32:09.519Z,976.52
2017-09-09T11:33:09.523Z,976.62
2017-09-09T11:34:09.524Z,976.65
2017-09-09T11:35:10.105Z,976.69
2017-09-09T11:36:09.527Z,976.68
2017-09-09T11:37:09.532Z,976.61
2017-09-09T11:38:09.533Z,976.62
2017-09-09T11:39:09.537Z,976.58
2017-09-09T11:40:09.861Z,976.62
2017-09-09T11:41:09.544Z,976.62
2017-09-09T11:42:09.545Z,976.59
2017-09-09T11:43:09.550Z,976.64
2017-09-09T11:44:09.551Z,976.64
2017-09-09T11:45:09.942Z,976.6
2017-09-09T11:46:10.370Z,976.58
2017-09-09T11:47:09.562Z,976.62
2017-09-09T11:48:09.564Z,976.59
2017-09-09T11:49:09.567Z,976.64
2017-09-09T11:50:10.040Z,976.64
2017-09-09T11:51:09.573Z,976.63
2017-09-09T11:52:09.578Z,976.74
2017-09-09T11:53:09.579Z,976.66
2017-09-09T11:54:09.586Z,976.7
2017-09-09T11:55:09.927Z,976.72
2017-09-09T11:56:09.589Z,976.76
2017-09-09T11:57:09.592Z,976.79
2017-09-09T11:58:09.595Z,976.78
2017-09-09T11:59:09.604Z,976.79
2017-09-09T12:00:10.047Z,976.84
2017-09-09T12:01:09.606Z,976.84
2017-09-09T12:02:09.609Z,976.73
2017-09-09T12:03:09.651Z,976.6
2017-09-09T12:04:09.644Z,976.5
2017-09-09T12:05:10.011Z,976.47
2017-09-09T12:06:09.620Z,976.48
2017-09-09T12:07:09.634Z,976.39
2017-09-09T12:08:09.632Z,976.41
2017-09-09T12:09:09.630Z,976.42
2017-09-09T12:10:09.991Z,976.34
2017-09-09T12:11:09.640Z,976.33
2017-09-09T12:12:09.640Z,976.37
2017-09-09T12:13:09.643Z,976.41
2017-09-09T12:14:09.646Z,976.54
2017-09-09T12:15:09.944Z,976.57
2017-09-09T12:16:11.394Z,976.51
2017-09-09T12:17:09.660Z,976.48
2017-09-09T12:18:09.658Z,976.5
2017-09-09T12:19:09.660Z,976.53
2017-09-09T12:20:09.991Z,976.59
2017-09-09T12:21:09.690Z,976.51
2017-09-09T12:22:09.669Z,976.55
2017-09-09T12:23:09.672Z,976.5
2017-09-09T12:24:09.676Z,976.54
2017-09-09T12:25:10.004Z,976.61
2017-09-09T12:26:09.686Z,976.62
2017-09-09T12:27:09.685Z,976.61
2017-09-09T12:28:09.688Z,976.63
2017-09-09T12:29:09.710Z,976.67
2017-09-09T12:30:09.868Z,976.69
2017-09-09T12:31:09.702Z,976.76